sensor_id;sensor_type;location;lat;lon;timestamp;pressure;altitude;pressure_sealevel;temperature;humidity
39891;BME280;25564;53.312;9.790;2023-01-28T00:02:31;102222.22;;;1.86;93.82
39891;BME280;25564;53.312;9.790;2023-01-28T00:05:03;102231.03;;;1.88;94.37
39891;BME280;25564;53.312;9.790;2023-01-28T00:07:35;102233.78;;;1.91;94.22
39891;BME280;25564;53.312;9.790;2023-01-28T00:10:06;102226.81;;;1.92;94.25
39891;BME280;25564;53.312;9.790;2023-01-28T00:12:38;102226.03;;;1.94;94.58
39891;BME280;25564;53.312;9.790;2023-01-28T00:15:10;102225.28;;;1.97;94.33
39891;BME280;25564;53.312;9.790;2023-01-28T00:17:42;102213.53;;;1.87;94.13
39891;BME280;25564;53.312;9.790;2023-01-28T00:20:13;102197.69;;;1.84;94.10
39891;BME280;25564;53.312;9.790;2023-01-28T00:22:48;102199.34;;;1.82;93.42
39891;BME280;25564;53.312;9.790;2023-01-28T00:25:22;102208.03;;;1.81;93.96
39891;BME280;25564;53.312;9.790;2023-01-28T00:27:53;102208.16;;;1.84;94.45
39891;BME280;25564;53.312;9.790;2023-01-28T00:30:25;102218.06;;;1.91;94.12
39891;BME280;25564;53.312;9.790;2023-01-28T00:32:57;102218.91;;;1.90;94.04
39891;BME280;25564;53.312;9.790;2023-01-28T00:35:28;102219.91;;;1.94;94.73
39891;BME280;25564;53.312;9.790;2023-01-28T00:38:00;102221.63;;;1.93;93.86
39891;BME280;25564;53.312;9.790;2023-01-28T00:40:33;102222.34;;;1.89;93.65
39891;BME280;25564;53.312;9.790;2023-01-28T00:43:05;102231.16;;;1.91;93.66
39891;BME280;25564;53.312;9.790;2023-01-28T00:45:36;102219.53;;;1.85;93.78
39891;BME280;25564;53.312;9.790;2023-01-28T00:48:09;102228.66;;;1.94;93.81
39891;BME280;25564;53.312;9.790;2023-01-28T00:50:40;102207.34;;;1.85;93.50
39891;BME280;25564;53.312;9.790;2023-01-28T00:53:11;102219.03;;;1.93;93.15
39891;BME280;25564;53.312;9.790;2023-01-28T00:55:43;102211.88;;;1.89;93.59
39891;BME280;25564;53.312;9.790;2023-01-28T00:58:14;102220.69;;;1.91;93.32
39891;BME280;25564;53.312;9.790;2023-01-28T01:00:45;102198.47;;;1.82;93.68
39891;BME280;25564;53.312;9.790;2023-01-28T01:03:17;102225.97;;;1.93;93.16
39891;BME280;25564;53.312;9.790;2023-01-28T01:05:49;102226.81;;;1.92;93.54
39891;BME280;25564;53.312;9.790;2023-01-28T01:08:20;102225.84;;;1.90;93.01
39891;BME280;25564;53.312;9.790;2023-01-28T01:11:06;102221.44;;;1.89;92.99
39891;BME280;25564;53.312;9.790;2023-01-28T01:13:38;102213.59;;;1.89;93.01
39891;BME280;25564;53.312;9.790;2023-01-28T01:16:11;102216.16;;;1.87;93.25
39891;BME280;25564;53.312;9.790;2023-01-28T01:18:43;102197.25;;;1.74;93.24
39891;BME280;25564;53.312;9.790;2023-01-28T01:21:17;102221.44;;;1.89;93.31
39891;BME280;25564;53.312;9.790;2023-01-28T01:23:48;102216.97;;;1.86;93.38
39891;BME280;25564;53.312;9.790;2023-01-28T01:26:20;102206.13;;;1.77;93.29
39891;BME280;25564;53.312;9.790;2023-01-28T01:28:52;102213.53;;;1.87;93.62
39891;BME280;25564;53.312;9.790;2023-01-28T01:31:23;102222.22;;;1.86;93.46
39891;BME280;25564;53.312;9.790;2023-01-28T01:33:55;102215.13;;;1.84;93.31
39891;BME280;25564;53.312;9.790;2023-01-28T01:36:26;102209.31;;;1.70;93.16
39891;BME280;25564;53.312;9.790;2023-01-28T01:38:57;102213.78;;;1.73;93.50
39891;BME280;25564;53.312;9.790;2023-01-28T01:41:31;102225.28;;;1.76;93.14
39891;BME280;25564;53.312;9.790;2023-01-28T01:44:04;102220.88;;;1.75;93.36
39891;BME280;25564;53.312;9.790;2023-01-28T01:46:42;102219.91;;;1.73;93.51
39891;BME280;25564;53.312;9.790;2023-01-28T01:49:24;102225.13;;;1.73;93.81
39891;BME280;25564;53.312;9.790;2023-01-28T01:52:01;102221.56;;;1.71;93.59
39891;BME280;25564;53.312;9.790;2023-01-28T01:54:34;102199.09;;;1.55;93.64
39891;BME280;25564;53.312;9.790;2023-01-28T01:57:09;102183.25;;;1.52;93.82
39891;BME280;25564;53.312;9.790;2023-01-28T01:59:44;102221.44;;;1.68;93.16
39891;BME280;25564;53.312;9.790;2023-01-28T02:02:16;102206.31;;;1.61;93.87
39891;BME280;25564;53.312;9.790;2023-01-28T02:04:47;102206.09;;;1.56;94.11
39891;BME280;25564;53.312;9.790;2023-01-28T02:07:19;102211.22;;;1.53;93.36
39891;BME280;25564;53.312;9.790;2023-01-28T02:09:50;102225.19;;;1.54;93.87
39891;BME280;25564;53.312;9.790;2023-01-28T02:12:26;102213.75;;;1.52;93.90
39891;BME280;25564;53.312;9.790;2023-01-28T02:15:02;102203.91;;;1.46;93.99
39891;BME280;25564;53.312;9.790;2023-01-28T02:17:35;102213.50;;;1.46;94.31
39891;BME280;25564;53.312;9.790;2023-01-28T02:20:13;102206.47;;;1.45;93.62
39891;BME280;25564;53.312;9.790;2023-01-28T02:23:15;102213.56;;;1.47;93.68
39891;BME280;25564;53.312;9.790;2023-01-28T02:31:26;102211.84;;;1.48;93.54
39891;BME280;25564;53.312;9.790;2023-01-28T02:34:26;102216.94;;;1.45;93.55
39891;BME280;25564;53.312;9.790;2023-01-28T02:37:11;102217.63;;;1.41;93.39
39891;BME280;25564;53.312;9.790;2023-01-28T02:39:47;102194.44;;;1.29;93.21
39891;BME280;25564;53.312;9.790;2023-01-28T02:42:26;102206.19;;;1.39;93.49
39891;BME280;25564;53.312;9.790;2023-01-28T02:44:59;102195.34;;;1.29;93.46
39891;BME280;25564;53.312;9.790;2023-01-28T02:47:30;102211.56;;;1.42;92.89
39891;BME280;25564;53.312;9.790;2023-01-28T02:50:20;102222.03;;;1.42;93.38
39891;BME280;25564;53.312;9.790;2023-01-28T02:56:06;102211.44;;;1.39;93.34
39891;BME280;25564;53.312;9.790;2023-01-28T02:59:02;102206.97;;;1.36;93.08
39891;BME280;25564;53.312;9.790;2023-01-28T03:02:11;102206.91;;;1.35;93.77
39891;BME280;25564;53.312;9.790;2023-01-28T03:04:49;102209.44;;;1.33;93.78
39891;BME280;25564;53.312;9.790;2023-01-28T03:07:22;102214.59;;;1.31;93.45
39891;BME280;25564;53.312;9.790;2023-01-28T03:09:57;102202.03;;;1.23;94.03
39891;BME280;25564;53.312;9.790;2023-01-28T03:12:36;102206.34;;;1.22;93.80
39891;BME280;25564;53.312;9.790;2023-01-28T03:15:33;102212.28;;;1.18;93.77
39891;BME280;25564;53.312;9.790;2023-01-28T03:18:38;102209.47;;;1.14;93.90
39891;BME280;25564;53.312;9.790;2023-01-28T03:21:33;102219.28;;;1.19;93.89
39891;BME280;25564;53.312;9.790;2023-01-28T03:24:29;102214.06;;;1.19;94.03
39891;BME280;25564;53.312;9.790;2023-01-28T03:27:22;102217.38;;;1.15;94.07
39891;BME280;25564;53.312;9.790;2023-01-28T03:30:22;102212.97;;;1.14;94.25
39891;BME280;25564;53.312;9.790;2023-01-28T03:33:15;102180.25;;;1.03;93.94
39891;BME280;25564;53.312;9.790;2023-01-28T03:36:06;102190.81;;;1.06;94.42
39891;BME280;25564;53.312;9.790;2023-01-28T03:38:56;102206.91;;;1.15;94.36
39891;BME280;25564;53.312;9.790;2023-01-28T03:41:28;102193.56;;;1.09;94.15
39891;BME280;25564;53.312;9.790;2023-01-28T03:44:00;102183.50;;;0.97;94.44
39891;BME280;25564;53.312;9.790;2023-01-28T03:46:50;102210.22;;;1.11;94.09
39891;BME280;25564;53.312;9.790;2023-01-28T03:49:21;102213.78;;;1.13;94.02
39891;BME280;25564;53.312;9.790;2023-01-28T03:51:52;102190.66;;;1.02;93.74
39891;BME280;25564;53.312;9.790;2023-01-28T03:54:24;102208.56;;;1.13;94.13
39891;BME280;25564;53.312;9.790;2023-01-28T03:56:55;102210.22;;;1.11;93.99
39891;BME280;25564;53.312;9.790;2023-01-28T03:59:26;102220.81;;;1.14;93.80
39891;BME280;25564;53.312;9.790;2023-01-28T04:01:57;102197.69;;;1.04;93.79
39891;BME280;25564;53.312;9.790;2023-01-28T04:04:29;102223.44;;;1.14;93.74
39891;BME280;25564;53.312;9.790;2023-01-28T04:07:02;102209.13;;;1.06;94.15
39891;BME280;25564;53.312;9.790;2023-01-28T04:09:34;102215.78;;;1.19;94.10
39891;BME280;25564;53.312;9.790;2023-01-28T04:12:06;102219.44;;;1.22;94.08
39891;BME280;25564;53.312;9.790;2023-01-28T04:14:37;102219.50;;;1.24;93.46
39891;BME280;25564;53.312;9.790;2023-01-28T04:17:10;102221.28;;;1.25;93.77
39891;BME280;25564;53.312;9.790;2023-01-28T04:19:41;102215.16;;;1.24;93.65
39891;BME280;25564;53.312;9.790;2023-01-28T04:22:12;102220.31;;;1.23;93.14
39891;BME280;25564;53.312;9.790;2023-01-28T04:24:44;102218.34;;;1.17;93.76
39891;BME280;25564;53.312;9.790;2023-01-28T04:27:15;102223.56;;;1.17;93.48
39891;BME280;25564;53.312;9.790;2023-01-28T04:29:46;102207.66;;;1.13;93.51
39891;BME280;25564;53.312;9.790;2023-01-28T04:32:18;102217.84;;;1.07;93.66
39891;BME280;25564;53.312;9.790;2023-01-28T04:34:49;102200.91;;;0.97;93.11
39891;BME280;25564;53.312;9.790;2023-01-28T04:37:20;102218.97;;;0.92;93.50
39891;BME280;25564;53.312;9.790;2023-01-28T04:39:51;102207.06;;;0.80;93.66
39891;BME280;25564;53.312;9.790;2023-01-28T04:42:23;102204.09;;;0.72;93.09
39891;BME280;25564;53.312;9.790;2023-01-28T04:44:54;102187.38;;;0.49;93.87
39891;BME280;25564;53.312;9.790;2023-01-28T04:47:26;102165.84;;;0.18;93.69
39891;BME280;25564;53.312;9.790;2023-01-28T04:49:57;102207.38;;;0.31;93.61
39891;BME280;25564;53.312;9.790;2023-01-28T04:52:28;102202.41;;;0.18;93.76
39891;BME280;25564;53.312;9.790;2023-01-28T04:54:59;102205.22;;;0.05;93.19
39891;BME280;25564;53.312;9.790;2023-01-28T04:57:31;102201.91;;;-0.11;93.90
39891;BME280;25564;53.312;9.790;2023-01-28T05:00:03;102195.25;;;-0.22;93.69
39891;BME280;25564;53.312;9.790;2023-01-28T05:02:35;102177.47;;;-0.47;92.96
39891;BME280;25564;53.312;9.790;2023-01-28T05:05:07;102202.66;;;-0.47;93.30
39891;BME280;25564;53.312;9.790;2023-01-28T05:07:41;102210.91;;;-0.56;93.59
39891;BME280;25564;53.312;9.790;2023-01-28T05:10:12;102215.72;;;-0.63;93.83
39891;BME280;25564;53.312;9.790;2023-01-28T05:12:44;102218.81;;;-0.71;93.17
39891;BME280;25564;53.312;9.790;2023-01-28T05:15:16;102208.91;;;-0.78;93.91
39891;BME280;25564;53.312;9.790;2023-01-28T05:17:48;102215.41;;;-0.86;93.25
39891;BME280;25564;53.312;9.790;2023-01-28T05:20:19;102219.31;;;-0.94;93.34
39891;BME280;25564;53.312;9.790;2023-01-28T05:22:51;102222.44;;;-1.01;93.64
39891;BME280;25564;53.312;9.790;2023-01-28T05:25:22;102213.34;;;-1.09;93.44
39891;BME280;25564;53.312;9.790;2023-01-28T05:27:53;102197.63;;;-1.27;93.13
39891;BME280;25564;53.312;9.790;2023-01-28T05:30:25;102188.25;;;-1.40;93.46
39891;BME280;25564;53.312;9.790;2023-01-28T05:32:56;102178.66;;;-1.41;93.53
39891;BME280;25564;53.312;9.790;2023-01-28T05:35:28;102195.97;;;-1.41;94.00
39891;BME280;25564;53.312;9.790;2023-01-28T05:37:59;102197.34;;;-1.48;93.23
39891;BME280;25564;53.312;9.790;2023-01-28T05:40:30;102192.53;;;-1.56;93.43
39891;BME280;25564;53.312;9.790;2023-01-28T05:43:02;102192.09;;;-1.64;93.46
39891;BME280;25564;53.312;9.790;2023-01-28T05:45:33;102188.34;;;-1.69;93.01
39891;BME280;25564;53.312;9.790;2023-01-28T05:48:05;102174.84;;;-1.78;93.42
39891;BME280;25564;53.312;9.790;2023-01-28T05:50:36;102158.72;;;-1.87;93.18
39891;BME280;25564;53.312;9.790;2023-01-28T05:53:08;102185.06;;;-1.81;93.40
39891;BME280;25564;53.312;9.790;2023-01-28T05:55:39;102173.16;;;-1.92;93.29
39891;BME280;25564;53.312;9.790;2023-01-28T05:58:10;102167.88;;;-1.94;94.29
39891;BME280;25564;53.312;9.790;2023-01-28T06:00:42;102181.16;;;-1.89;94.10
39891;BME280;25564;53.312;9.790;2023-01-28T06:03:13;102198.38;;;-1.91;94.19
39891;BME280;25564;53.312;9.790;2023-01-28T06:05:45;102204.28;;;-1.94;94.71
39891;BME280;25564;53.312;9.790;2023-01-28T06:08:16;102203.13;;;-1.99;94.44
39891;BME280;25564;53.312;9.790;2023-01-28T06:10:47;102202.06;;;-2.03;94.62
39891;BME280;25564;53.312;9.790;2023-01-28T06:13:18;102163.84;;;-2.20;93.96
39891;BME280;25564;53.312;9.790;2023-01-28T06:15:50;102182.38;;;-2.14;93.64
39891;BME280;25564;53.312;9.790;2023-01-28T06:18:21;102189.84;;;-2.20;94.31
39891;BME280;25564;53.312;9.790;2023-01-28T06:20:53;102172.28;;;-2.39;94.15
39891;BME280;25564;53.312;9.790;2023-01-28T06:23:24;102188.50;;;-2.28;93.64
39891;BME280;25564;53.312;9.790;2023-01-28T06:25:56;102185.53;;;-2.34;93.81
39891;BME280;25564;53.312;9.790;2023-01-28T06:28:27;102162.25;;;-2.47;94.14
39891;BME280;25564;53.312;9.790;2023-01-28T06:30:59;102187.97;;;-2.37;93.59
39891;BME280;25564;53.312;9.790;2023-01-28T06:33:30;102179.19;;;-2.39;93.47
39891;BME280;25564;53.312;9.790;2023-01-28T06:36:03;102181.78;;;-2.39;93.50
39891;BME280;25564;53.312;9.790;2023-01-28T06:38:34;102178.38;;;-2.38;93.69
39891;BME280;25564;53.312;9.790;2023-01-28T06:41:05;102193.34;;;-2.34;93.74
39891;BME280;25564;53.312;9.790;2023-01-28T06:43:37;102152.38;;;-2.53;93.57
39891;BME280;25564;53.312;9.790;2023-01-28T06:46:08;102173.25;;;-2.37;93.73
39891;BME280;25564;53.312;9.790;2023-01-28T06:48:39;102182.84;;;-2.36;94.53
39891;BME280;25564;53.312;9.790;2023-01-28T06:51:11;102182.94;;;-2.34;94.14
39891;BME280;25564;53.312;9.790;2023-01-28T06:53:42;102182.13;;;-2.33;94.08
39891;BME280;25564;53.312;9.790;2023-01-28T06:56:16;102174.34;;;-2.33;94.07
39891;BME280;25564;53.312;9.790;2023-01-28T06:58:47;102176.94;;;-2.33;93.78
39891;BME280;25564;53.312;9.790;2023-01-28T07:01:18;102175.16;;;-2.34;94.95
39891;BME280;25564;53.312;9.790;2023-01-28T07:03:50;102177.75;;;-2.34;94.77
39891;BME280;25564;53.312;9.790;2023-01-28T07:06:21;102178.38;;;-2.38;94.93
39891;BME280;25564;53.312;9.790;2023-01-28T07:08:52;102197.38;;;-2.39;94.74
39891;BME280;25564;53.312;9.790;2023-01-28T07:11:24;102198.09;;;-2.42;94.85
39891;BME280;25564;53.312;9.790;2023-01-28T07:13:55;102180.00;;;-2.55;94.61
39891;BME280;25564;53.312;9.790;2023-01-28T07:16:27;102200.25;;;-2.49;94.58
39891;BME280;25564;53.312;9.790;2023-01-28T07:18:58;102216.47;;;-2.53;93.99
39891;BME280;25564;53.312;9.790;2023-01-28T07:21:29;102213.50;;;-2.59;94.47
39891;BME280;25564;53.312;9.790;2023-01-28T07:24:00;102202.28;;;-2.73;94.56
39891;BME280;25564;53.312;9.790;2023-01-28T07:26:32;102220.66;;;-2.70;94.01
39891;BME280;25564;53.312;9.790;2023-01-28T07:29:03;102244.13;;;-2.69;94.04
39891;BME280;25564;53.312;9.790;2023-01-28T07:31:35;102245.03;;;-2.68;94.74
39891;BME280;25564;53.312;9.790;2023-01-28T07:34:08;102255.31;;;-2.70;94.21
39891;BME280;25564;53.312;9.790;2023-01-28T07:36:39;102249.84;;;-2.74;94.28
39891;BME280;25564;53.312;9.790;2023-01-28T07:39:10;102240.16;;;-2.77;94.35
39891;BME280;25564;53.312;9.790;2023-01-28T07:41:42;102234.97;;;-2.77;94.06
39891;BME280;25564;53.312;9.790;2023-01-28T07:44:13;102240.53;;;-2.71;93.98
39891;BME280;25564;53.312;9.790;2023-01-28T07:46:44;102247.91;;;-2.64;94.29
39891;BME280;25564;53.312;9.790;2023-01-28T07:49:16;102235.06;;;-2.75;94.50
39891;BME280;25564;53.312;9.790;2023-01-28T07:51:47;102259.19;;;-2.63;94.51
39891;BME280;25564;53.312;9.790;2023-01-28T07:54:20;102234.25;;;-2.74;94.07
39891;BME280;25564;53.312;9.790;2023-01-28T07:56:52;102253.09;;;-2.64;94.35
39891;BME280;25564;53.312;9.790;2023-01-28T07:59:23;102240.16;;;-2.77;94.06
39891;BME280;25564;53.312;9.790;2023-01-28T08:01:54;102279.97;;;-2.63;94.78
39891;BME280;25564;53.312;9.790;2023-01-28T08:04:26;102261.97;;;-2.60;94.88
39891;BME280;25564;53.312;9.790;2023-01-28T08:06:57;102265.13;;;-2.51;94.08
39891;BME280;25564;53.312;9.790;2023-01-28T08:09:28;102274.09;;;-2.46;94.65
39891;BME280;25564;53.312;9.790;2023-01-28T08:12:00;102258.22;;;-2.50;94.00
39891;BME280;25564;53.312;9.790;2023-01-28T08:14:32;102278.69;;;-2.27;95.04
39891;BME280;25564;53.312;9.790;2023-01-28T08:17:04;102283.97;;;-2.11;95.53
39891;BME280;25564;53.312;9.790;2023-01-28T08:19:35;102290.03;;;-1.95;94.89
39891;BME280;25564;53.312;9.790;2023-01-28T08:22:06;102279.91;;;-1.91;94.79
39891;BME280;25564;53.312;9.790;2023-01-28T08:24:37;102288.06;;;-1.70;95.55
39891;BME280;25564;53.312;9.790;2023-01-28T08:27:09;102288.56;;;-1.61;95.70
39891;BME280;25564;53.312;9.790;2023-01-28T08:29:40;102258.63;;;-1.69;95.13
39891;BME280;25564;53.312;9.790;2023-01-28T08:32:11;102281.38;;;-1.50;95.04
39891;BME280;25564;53.312;9.790;2023-01-28T08:34:43;102291.56;;;-1.39;94.96
39891;BME280;25564;53.312;9.790;2023-01-28T08:37:14;102274.50;;;-1.34;95.51
39891;BME280;25564;53.312;9.790;2023-01-28T08:39:45;102280.06;;;-1.27;96.00
39891;BME280;25564;53.312;9.790;2023-01-28T08:42:16;102294.41;;;-1.19;95.80
39891;BME280;25564;53.312;9.790;2023-01-28T08:44:48;102239.69;;;-1.36;96.17
39891;BME280;25564;53.312;9.790;2023-01-28T08:47:19;102273.81;;;-0.99;96.28
39891;BME280;25564;53.312;9.790;2023-01-28T08:49:50;102292.69;;;-0.86;95.89
39891;BME280;25564;53.312;9.790;2023-01-28T08:52:22;102291.66;;;-0.74;96.29
39891;BME280;25564;53.312;9.790;2023-01-28T08:54:53;102297.66;;;-0.58;95.44
39891;BME280;25564;53.312;9.790;2023-01-28T08:57:24;102264.69;;;-0.58;95.74
39891;BME280;25564;53.312;9.790;2023-01-28T08:59:56;102259.72;;;-0.53;96.58
39891;BME280;25564;53.312;9.790;2023-01-28T09:02:27;102284.47;;;-0.45;95.50
39891;BME280;25564;53.312;9.790;2023-01-28T09:05:03;102293.91;;;-0.31;95.90
39891;BME280;25564;53.312;9.790;2023-01-28T09:07:34;102289.97;;;-0.23;95.70
39891;BME280;25564;53.312;9.790;2023-01-28T09:10:07;102296.31;;;-0.18;96.02
39891;BME280;25564;53.312;9.790;2023-01-28T09:12:39;102306.44;;;-0.24;95.94
39891;BME280;25564;53.312;9.790;2023-01-28T09:15:10;102309.41;;;-0.34;95.12
39891;BME280;25564;53.312;9.790;2023-01-28T09:17:42;102305.81;;;-0.52;95.59
39891;BME280;25564;53.312;9.790;2023-01-28T09:20:13;102306.41;;;-0.58;95.61
39891;BME280;25564;53.312;9.790;2023-01-28T09:22:45;102313.06;;;-0.47;96.24
39891;BME280;25564;53.312;9.790;2023-01-28T09:25:17;102312.66;;;-0.38;96.33
39891;BME280;25564;53.312;9.790;2023-01-28T09:27:48;102319.97;;;-0.31;95.68
39891;BME280;25564;53.312;9.790;2023-01-28T09:30:19;102328.38;;;-0.20;95.97
39891;BME280;25564;53.312;9.790;2023-01-28T09:32:52;102334.81;;;-0.14;96.39
39891;BME280;25564;53.312;9.790;2023-01-28T09:35:24;102345.72;;;-0.05;96.19
39891;BME280;25564;53.312;9.790;2023-01-28T09:37:56;102349.41;;;0.00;96.06
39891;BME280;25564;53.312;9.790;2023-01-28T09:40:35;102358.69;;;0.12;95.51
39891;BME280;25564;53.312;9.790;2023-01-28T09:45:47;102364.09;;;0.32;96.47
39891;BME280;25564;53.312;9.790;2023-01-28T09:48:21;102363.66;;;0.41;95.81
39891;BME280;25564;53.312;9.790;2023-01-28T09:50:54;102350.09;;;0.48;95.58
39891;BME280;25564;53.312;9.790;2023-01-28T09:53:35;102351.53;;;0.59;95.61
39891;BME280;25564;53.312;9.790;2023-01-28T09:56:15;102349.38;;;0.69;95.57
39891;BME280;25564;53.312;9.790;2023-01-28T09:58:51;102329.06;;;0.63;95.71
39891;BME280;25564;53.312;9.790;2023-01-28T10:06:57;102338.00;;;1.23;95.87
39891;BME280;25564;53.312;9.790;2023-01-28T10:09:49;102325.63;;;1.38;95.65
39891;BME280;25564;53.312;9.790;2023-01-28T10:12:38;102320.94;;;1.50;95.66
39891;BME280;25564;53.312;9.790;2023-01-28T10:18:11;102294.56;;;1.65;95.55
39891;BME280;25564;53.312;9.790;2023-01-28T10:20:53;102289.25;;;1.83;95.59
39891;BME280;25564;53.312;9.790;2023-01-28T10:23:33;102304.00;;;2.02;95.38
39891;BME280;25564;53.312;9.790;2023-01-28T10:26:18;102301.25;;;1.99;95.26
39891;BME280;25564;53.312;9.790;2023-01-28T10:28:55;102299.88;;;2.07;94.92
39891;BME280;25564;53.312;9.790;2023-01-28T10:31:31;102307.63;;;2.26;95.01
39891;BME280;25564;53.312;9.790;2023-01-28T10:34:05;102285.47;;;2.39;95.28
39891;BME280;25564;53.312;9.790;2023-01-28T10:36:36;102269.72;;;2.59;94.99
39891;BME280;25564;53.312;9.790;2023-01-28T10:39:12;102281.75;;;2.77;95.57
39891;BME280;25564;53.312;9.790;2023-01-28T10:41:44;102297.59;;;2.80;95.59
39891;BME280;25564;53.312;9.790;2023-01-28T10:44:34;102276.50;;;2.77;94.94
39891;BME280;25564;53.312;9.790;2023-01-28T10:47:18;102272.63;;;2.89;95.48
39891;BME280;25564;53.312;9.790;2023-01-28T10:49:53;102257.69;;;2.87;95.31
39891;BME280;25564;53.312;9.790;2023-01-28T10:52:27;102254.47;;;2.94;95.00
39891;BME280;25564;53.312;9.790;2023-01-28T10:55:00;102266.31;;;3.07;95.54
39891;BME280;25564;53.312;9.790;2023-01-28T10:57:33;102275.25;;;3.12;94.67
39891;BME280;25564;53.312;9.790;2023-01-28T11:00:29;102270.03;;;3.13;95.04
39891;BME280;25564;53.312;9.790;2023-01-28T11:03:02;102244.56;;;3.09;94.56
39891;BME280;25564;53.312;9.790;2023-01-28T11:05:33;102256.91;;;3.37;94.93
39891;BME280;25564;53.312;9.790;2023-01-28T11:08:15;102213.03;;;3.33;94.89
39891;BME280;25564;53.312;9.790;2023-01-28T11:10:48;102225.72;;;3.70;94.34
39891;BME280;25564;53.312;9.790;2023-01-28T11:13:28;102232.47;;;3.87;94.26
39891;BME280;25564;53.312;9.790;2023-01-28T11:16:02;102230.66;;;3.86;93.49
39891;BME280;25564;53.312;9.790;2023-01-28T11:18:39;102220.13;;;3.85;94.20
39891;BME280;25564;53.312;9.790;2023-01-28T11:21:31;102208.72;;;3.84;93.74
39891;BME280;25564;53.312;9.790;2023-01-28T11:24:13;102199.94;;;3.84;94.60
39891;BME280;25564;53.312;9.790;2023-01-28T11:26:52;102206.84;;;3.80;95.11
39891;BME280;25564;53.312;9.790;2023-01-28T11:29:31;102207.56;;;3.76;93.58
39891;BME280;25564;53.312;9.790;2023-01-28T11:32:03;102163.69;;;3.47;93.95
39891;BME280;25564;53.312;9.790;2023-01-28T11:34:34;102190.34;;;3.59;93.89
39891;BME280;25564;53.312;9.790;2023-01-28T11:37:13;102174.06;;;3.69;94.58
39891;BME280;25564;53.312;9.790;2023-01-28T11:39:46;102179.69;;;3.80;93.68
39891;BME280;25564;53.312;9.790;2023-01-28T11:42:19;102125.78;;;3.64;93.48
39891;BME280;25564;53.312;9.790;2023-01-28T11:44:52;102134.91;;;3.75;93.68
39891;BME280;25564;53.312;9.790;2023-01-28T11:50:09;102169.66;;;3.68;93.81
39891;BME280;25564;53.312;9.790;2023-01-28T11:56:11;102185.66;;;3.50;92.94
39891;BME280;25564;53.312;9.790;2023-01-28T12:04:52;102193.00;;;3.35;94.79
39891;BME280;25564;53.312;9.790;2023-01-28T12:07:45;102181.56;;;3.33;93.69
39891;BME280;25564;53.312;9.790;2023-01-28T12:10:39;102183.66;;;3.43;94.62
39891;BME280;25564;53.312;9.790;2023-01-28T12:13:24;102175.16;;;3.50;93.73
39891;BME280;25564;53.312;9.790;2023-01-28T12:19:07;102181.25;;;3.49;93.26
39891;BME280;25564;53.312;9.790;2023-01-28T12:22:03;102180.78;;;3.36;93.00
39891;BME280;25564;53.312;9.790;2023-01-28T12:31:01;102166.38;;;3.24;93.09
39891;BME280;25564;53.312;9.790;2023-01-28T12:34:15;102162.66;;;3.18;93.57
39891;BME280;25564;53.312;9.790;2023-01-28T12:37:18;102157.69;;;3.25;93.73
39891;BME280;25564;53.312;9.790;2023-01-28T12:40:15;102163.31;;;3.12;94.13
39891;BME280;25564;53.312;9.790;2023-01-28T12:43:13;102171.75;;;3.27;94.64
39891;BME280;25564;53.312;9.790;2023-01-28T12:46:16;102158.91;;;3.35;94.37
39891;BME280;25564;53.312;9.790;2023-01-28T12:48:46;102150.41;;;3.42;94.21
39891;BME280;25564;53.312;9.790;2023-01-28T12:51:22;102143.69;;;3.50;93.65
39891;BME280;25564;53.312;9.790;2023-01-28T12:54:07;102129.50;;;3.45;93.92
39891;BME280;25564;53.312;9.790;2023-01-28T12:56:46;102130.41;;;3.46;93.85
39891;BME280;25564;53.312;9.790;2023-01-28T13:02:33;102119.22;;;3.51;93.24
39891;BME280;25564;53.312;9.790;2023-01-28T13:05:13;102118.84;;;3.66;93.88
39891;BME280;25564;53.312;9.790;2023-01-28T13:08:01;102120.47;;;3.89;93.76
39891;BME280;25564;53.312;9.790;2023-01-28T13:10:37;102096.16;;;3.95;93.80
39891;BME280;25564;53.312;9.790;2023-01-28T13:13:23;102094.66;;;4.03;93.04
39891;BME280;25564;53.312;9.790;2023-01-28T13:15:57;102107.00;;;4.06;92.03
39891;BME280;25564;53.312;9.790;2023-01-28T13:21:29;102087.72;;;4.05;93.48
39891;BME280;25564;53.312;9.790;2023-01-28T13:26:54;102111.31;;;4.34;93.96
39891;BME280;25564;53.312;9.790;2023-01-28T13:29:32;102107.66;;;4.28;94.12
39891;BME280;25564;53.312;9.790;2023-01-28T13:32:28;102102.09;;;4.18;93.72
39891;BME280;25564;53.312;9.790;2023-01-28T13:35:06;102097.56;;;4.12;93.42
39891;BME280;25564;53.312;9.790;2023-01-28T13:37:39;102105.75;;;3.94;94.28
39891;BME280;25564;53.312;9.790;2023-01-28T13:42:56;102112.34;;;4.09;94.76
39891;BME280;25564;53.312;9.790;2023-01-28T13:45:28;102110.97;;;4.21;94.58
39891;BME280;25564;53.312;9.790;2023-01-28T13:48:30;102117.53;;;4.36;93.77
39891;BME280;25564;53.312;9.790;2023-01-28T13:51:03;102118.38;;;4.35;93.64
39891;BME280;25564;53.312;9.790;2023-01-28T13:53:47;102104.00;;;4.23;94.33
39891;BME280;25564;53.312;9.790;2023-01-28T13:56:24;102119.88;;;4.26;94.52
39891;BME280;25564;53.312;9.790;2023-01-28T13:59:09;102113.63;;;4.23;93.93
39891;BME280;25564;53.312;9.790;2023-01-28T14:01:59;102121.69;;;4.29;94.72
39891;BME280;25564;53.312;9.790;2023-01-28T14:04:49;102127.88;;;4.31;94.46
39891;BME280;25564;53.312;9.790;2023-01-28T14:07:47;102139.09;;;4.25;93.90
39891;BME280;25564;53.312;9.790;2023-01-28T14:10:33;102141.44;;;4.15;94.25
39891;BME280;25564;53.312;9.790;2023-01-28T14:13:28;102124.59;;;4.08;94.84
39891;BME280;25564;53.312;9.790;2023-01-28T14:16:28;102122.56;;;4.00;94.24
39891;BME280;25564;53.312;9.790;2023-01-28T14:19:02;102133.31;;;4.07;94.75
39891;BME280;25564;53.312;9.790;2023-01-28T14:21:34;102149.56;;;4.24;94.71
39891;BME280;25564;53.312;9.790;2023-01-28T14:24:15;102142.69;;;4.27;94.26
39891;BME280;25564;53.312;9.790;2023-01-28T14:27:05;102141.88;;;4.30;94.19
39891;BME280;25564;53.312;9.790;2023-01-28T14:32:18;102125.66;;;4.15;93.90
39891;BME280;25564;53.312;9.790;2023-01-28T14:34:52;102133.06;;;4.28;94.32
39891;BME280;25564;53.312;9.790;2023-01-28T14:37:28;102143.81;;;4.36;94.98
39891;BME280;25564;53.312;9.790;2023-01-28T14:40:03;102130.75;;;4.39;93.95